sensor_id;sensor_type;location;lat;lon;timestamp;pressure;altitude;pressure_sealevel;temperature;humidity
9746;BME280;4912;50.836;12.958;2023-05-02T00:02:03;97665.03;;;14.58;74.87
9746;BME280;4912;50.836;12.958;2023-05-02T00:04:35;97669.13;;;14.68;74.73
9746;BME280;4912;50.836;12.958;2023-05-02T00:07:05;97665.38;;;14.71;74.55
9746;BME280;4912;50.836;12.958;2023-05-02T00:09:36;97652.13;;;14.61;75.03
9746;BME280;4912;50.836;12.958;2023-05-02T00:12:07;97654.88;;;14.55;75.15
9746;BME280;4912;50.836;12.958;2023-05-02T00:14:37;97653.31;;;14.43;75.42
9746;BME280;4912;50.836;12.958;2023-05-02T00:17:15;97649.09;;;14.22;76.70
9746;BME280;4912;50.836;12.958;2023-05-02T00:19:47;97653.00;;;13.99;78.39
9746;BME280;4912;50.836;12.958;2023-05-02T00:22:18;97655.59;;;14.08;78.29
9746;BME280;4912;50.836;12.958;2023-05-02T00:24:49;97650.03;;;14.08;78.65
9746;BME280;4912;50.836;12.958;2023-05-02T00:27:20;97641.94;;;14.10;78.51
9746;BME280;4912;50.836;12.958;2023-05-02T00:29:50;97653.03;;;14.04;78.84
9746;BME280;4912;50.836;12.958;2023-05-02T00:32:23;97647.28;;;14.13;78.30
9746;BME280;4912;50.836;12.958;2023-05-02T00:34:54;97659.03;;;14.28;77.81
9746;BME280;4912;50.836;12.958;2023-05-02T00:37:25;97661.94;;;14.14;77.89
9746;BME280;4912;50.836;12.958;2023-05-02T00:39:57;97657.34;;;14.05;78.87
9746;BME280;4912;50.836;12.958;2023-05-02T00:42:28;97660.81;;;13.94;79.09
9746;BME280;4912;50.836;12.958;2023-05-02T00:45:01;97652.63;;;13.85;80.05
9746;BME280;4912;50.836;12.958;2023-05-02T00:47:35;97652.06;;;13.76;80.72
9746;BME280;4912;50.836;12.958;2023-05-02T00:50:07;97651.28;;;13.75;81.15
9746;BME280;4912;50.836;12.958;2023-05-02T00:52:38;97648.28;;;13.79;81.30
9746;BME280;4912;50.836;12.958;2023-05-02T00:55:09;97652.59;;;13.80;81.06
9746;BME280;4912;50.836;12.958;2023-05-02T00:57:39;97652.50;;;13.69;81.76
9746;BME280;4912;50.836;12.958;2023-05-02T01:00:11;97648.88;;;13.88;80.54
9746;BME280;4912;50.836;12.958;2023-05-02T01:02:49;97653.63;;;13.82;80.96
9746;BME280;4912;50.836;12.958;2023-05-02T01:05:27;97645.69;;;13.70;81.99
9746;BME280;4912;50.836;12.958;2023-05-02T01:08:09;97647.31;;;13.56;82.62
9746;BME280;4912;50.836;12.958;2023-05-02T01:10:48;97648.66;;;13.61;82.67
9746;BME280;4912;50.836;12.958;2023-05-02T01:13:26;97653.16;;;13.58;82.83
9746;BME280;4912;50.836;12.958;2023-05-02T01:16:01;97653.44;;;13.60;82.68
9746;BME280;4912;50.836;12.958;2023-05-02T01:18:37;97652.78;;;13.71;82.29
9746;BME280;4912;50.836;12.958;2023-05-02T01:21:11;97653.69;;;13.88;81.15
9746;BME280;4912;50.836;12.958;2023-05-02T01:23:48;97657.94;;;13.83;81.06
9746;BME280;4912;50.836;12.958;2023-05-02T01:26:33;97654.03;;;13.70;82.08
9746;BME280;4912;50.836;12.958;2023-05-02T01:29:13;97650.09;;;13.82;81.43
9746;BME280;4912;50.836;12.958;2023-05-02T01:31:47;97662.47;;;13.81;81.20
9746;BME280;4912;50.836;12.958;2023-05-02T01:34:20;97667.16;;;13.69;81.98
9746;BME280;4912;50.836;12.958;2023-05-02T01:36:54;97661.31;;;13.67;82.04
9746;BME280;4912;50.836;12.958;2023-05-02T01:39:26;97662.38;;;13.70;82.09
9746;BME280;4912;50.836;12.958;2023-05-02T01:41:58;97663.00;;;13.85;81.10
9746;BME280;4912;50.836;12.958;2023-05-02T01:44:35;97666.78;;;13.82;80.92
9746;BME280;4912;50.836;12.958;2023-05-02T01:47:07;97667.22;;;13.75;81.11
9746;BME280;4912;50.836;12.958;2023-05-02T01:49:40;97674.06;;;13.79;81.03
9746;BME280;4912;50.836;12.958;2023-05-02T01:52:12;97674.69;;;13.63;81.51
9746;BME280;4912;50.836;12.958;2023-05-02T01:54:44;97669.94;;;13.43;82.30
9746;BME280;4912;50.836;12.958;2023-05-02T01:57:15;97676.44;;;13.35;82.90
9746;BME280;4912;50.836;12.958;2023-05-02T01:59:49;97674.47;;;13.15;84.18
9746;BME280;4912;50.836;12.958;2023-05-02T02:02:21;97680.69;;;13.10;84.75
9746;BME280;4912;50.836;12.958;2023-05-02T02:04:54;97678.75;;;13.16;84.20
9746;BME280;4912;50.836;12.958;2023-05-02T02:07:25;97682.00;;;13.35;83.07
9746;BME280;4912;50.836;12.958;2023-05-02T02:09:56;97684.97;;;13.31;82.75
9746;BME280;4912;50.836;12.958;2023-05-02T02:12:29;97691.03;;;13.30;82.87
9746;BME280;4912;50.836;12.958;2023-05-02T02:15:22;97692.53;;;13.25;82.95
9746;BME280;4912;50.836;12.958;2023-05-02T02:17:58;97696.69;;;13.15;83.24
9746;BME280;4912;50.836;12.958;2023-05-02T02:20:31;97701.06;;;13.01;83.61
9746;BME280;4912;50.836;12.958;2023-05-02T02:23:05;97706.97;;;12.89;84.20
9746;BME280;4912;50.836;12.958;2023-05-02T02:25:36;97708.97;;;12.88;83.92
9746;BME280;4912;50.836;12.958;2023-05-02T02:28:07;97716.53;;;12.88;83.38
9746;BME280;4912;50.836;12.958;2023-05-02T02:30:40;97713.19;;;12.84;83.74
9746;BME280;4912;50.836;12.958;2023-05-02T02:33:10;97720.97;;;12.80;83.82
9746;BME280;4912;50.836;12.958;2023-05-02T02:35:53;97713.41;;;12.80;83.54
9746;BME280;4912;50.836;12.958;2023-05-02T02:38:33;97723.28;;;12.66;83.99
9746;BME280;4912;50.836;12.958;2023-05-02T02:41:12;97730.66;;;12.69;83.94
9746;BME280;4912;50.836;12.958;2023-05-02T02:43:53;97737.00;;;12.70;83.90
9746;BME280;4912;50.836;12.958;2023-05-02T02:46:47;97738.03;;;12.72;83.67
9746;BME280;4912;50.836;12.958;2023-05-02T02:49:26;97744.06;;;12.71;83.69
9746;BME280;4912;50.836;12.958;2023-05-02T02:52:05;97745.19;;;12.79;83.11
9746;BME280;4912;50.836;12.958;2023-05-02T02:54:45;97752.47;;;12.77;82.73
9746;BME280;4912;50.836;12.958;2023-05-02T02:57:26;97746.94;;;12.77;82.52
9746;BME280;4912;50.836;12.958;2023-05-02T03:00:06;97758.50;;;12.75;82.89
9746;BME280;4912;50.836;12.958;2023-05-02T03:02:51;97752.66;;;12.73;82.53
9746;BME280;4912;50.836;12.958;2023-05-02T03:05:24;97754.28;;;12.80;81.95
9746;BME280;4912;50.836;12.958;2023-05-02T03:07:58;97753.88;;;12.87;81.13
9746;BME280;4912;50.836;12.958;2023-05-02T03:10:30;97754.97;;;12.75;81.25
9746;BME280;4912;50.836;12.958;2023-05-02T03:13:01;97765.03;;;12.72;81.49
9746;BME280;4912;50.836;12.958;2023-05-02T03:16:05;97767.16;;;12.62;81.92
9746;BME280;4912;50.836;12.958;2023-05-02T03:18:53;97778.56;;;12.64;81.56
9746;BME280;4912;50.836;12.958;2023-05-02T03:21:23;97770.91;;;12.59;81.92
9746;BME280;4912;50.836;12.958;2023-05-02T03:23:56;97772.16;;;12.58;81.78
9746;BME280;4912;50.836;12.958;2023-05-02T03:26:28;97777.31;;;12.51;81.98
9746;BME280;4912;50.836;12.958;2023-05-02T03:28:59;97780.22;;;12.42;82.43
9746;BME280;4912;50.836;12.958;2023-05-02T03:31:35;97784.03;;;12.44;82.18
9746;BME280;4912;50.836;12.958;2023-05-02T03:34:08;97787.59;;;12.30;83.08
9746;BME280;4912;50.836;12.958;2023-05-02T03:36:45;97790.47;;;12.21;83.58
9746;BME280;4912;50.836;12.958;2023-05-02T03:39:16;97783.19;;;12.09;84.07
9746;BME280;4912;50.836;12.958;2023-05-02T03:41:47;97788.94;;;12.20;83.51
9746;BME280;4912;50.836;12.958;2023-05-02T03:44:23;97785.91;;;12.18;83.21
9746;BME280;4912;50.836;12.958;2023-05-02T03:46:54;97787.81;;;12.12;83.61
9746;BME280;4912;50.836;12.958;2023-05-02T03:49:28;97790.66;;;12.03;83.88
9746;BME280;4912;50.836;12.958;2023-05-02T03:51:59;97788.19;;;12.05;83.76
9746;BME280;4912;50.836;12.958;2023-05-02T03:54:33;97795.25;;;12.20;82.84
9746;BME280;4912;50.836;12.958;2023-05-02T03:57:03;97803.47;;;12.15;82.94
9746;BME280;4912;50.836;12.958;2023-05-02T03:59:35;97808.09;;;12.18;82.46
9746;BME280;4912;50.836;12.958;2023-05-02T04:02:16;97805.59;;;12.05;82.87
9746;BME280;4912;50.836;12.958;2023-05-02T04:04:50;97812.19;;;12.08;82.96
9746;BME280;4912;50.836;12.958;2023-05-02T04:07:22;97821.25;;;12.08;82.87
9746;BME280;4912;50.836;12.958;2023-05-02T04:09:58;97821.56;;;12.10;82.76
9746;BME280;4912;50.836;12.958;2023-05-02T04:12:33;97820.69;;;12.04;83.15
9746;BME280;4912;50.836;12.958;2023-05-02T04:15:05;97828.91;;;11.99;83.08
9746;BME280;4912;50.836;12.958;2023-05-02T04:17:36;97838.47;;;11.98;83.42
9746;BME280;4912;50.836;12.958;2023-05-02T04:20:12;97837.53;;;12.01;83.25
9746;BME280;4912;50.836;12.958;2023-05-02T04:22:47;97840.78;;;11.99;83.22
9746;BME280;4912;50.836;12.958;2023-05-02T04:25:17;97847.66;;;12.04;83.18
9746;BME280;4912;50.836;12.958;2023-05-02T04:27:50;97838.09;;;12.19;82.30
9746;BME280;4912;50.836;12.958;2023-05-02T04:30:22;97849.03;;;12.23;81.73
9746;BME280;4912;50.836;12.958;2023-05-02T04:33:01;97857.44;;;12.28;81.11
9746;BME280;4912;50.836;12.958;2023-05-02T04:35:38;97860.31;;;12.34;81.12
9746;BME280;4912;50.836;12.958;2023-05-02T04:38:13;97862.81;;;12.47;80.14
9746;BME280;4912;50.836;12.958;2023-05-02T04:40:45;97863.84;;;12.49;79.93
9746;BME280;4912;50.836;12.958;2023-05-02T04:43:16;97862.81;;;12.47;79.86
9746;BME280;4912;50.836;12.958;2023-05-02T04:45:55;97861.81;;;12.64;78.74
9746;BME280;4912;50.836;12.958;2023-05-02T04:48:30;97870.53;;;12.72;77.82
9746;BME280;4912;50.836;12.958;2023-05-02T04:51:04;97860.75;;;12.77;77.71
9746;BME280;4912;50.836;12.958;2023-05-02T04:53:36;97871.78;;;12.56;78.55
9746;BME280;4912;50.836;12.958;2023-05-02T04:56:07;97876.19;;;12.63;78.22
9746;BME280;4912;50.836;12.958;2023-05-02T04:58:37;97881.53;;;12.66;78.16
9746;BME280;4912;50.836;12.958;2023-05-02T05:01:09;97890.53;;;12.61;78.01
9746;BME280;4912;50.836;12.958;2023-05-02T05:03:40;97892.84;;;12.48;78.94
9746;BME280;4912;50.836;12.958;2023-05-02T05:06:14;97892.19;;;12.53;78.90
9746;BME280;4912;50.836;12.958;2023-05-02T05:08:46;97907.84;;;12.56;78.76
9746;BME280;4912;50.836;12.958;2023-05-02T05:11:16;97909.69;;;12.59;78.88
9746;BME280;4912;50.836;12.958;2023-05-02T05:13:47;97920.19;;;12.55;78.75
9746;BME280;4912;50.836;12.958;2023-05-02T05:16:17;97914.75;;;12.61;79.23
9746;BME280;4912;50.836;12.958;2023-05-02T05:18:49;97920.50;;;12.57;78.92
9746;BME280;4912;50.836;12.958;2023-05-02T05:21:22;97923.28;;;12.57;78.88
9746;BME280;4912;50.836;12.958;2023-05-02T05:23:54;97922.22;;;12.69;78.32
9746;BME280;4912;50.836;12.958;2023-05-02T05:26:27;97926.81;;;12.72;78.03
9746;BME280;4912;50.836;12.958;2023-05-02T05:28:58;97928.44;;;12.64;78.36
9746;BME280;4912;50.836;12.958;2023-05-02T05:31:35;97942.31;;;12.64;78.25
9746;BME280;4912;50.836;12.958;2023-05-02T05:34:05;97941.84;;;12.81;77.67
9746;BME280;4912;50.836;12.958;2023-05-02T05:36:39;97939.94;;;12.72;77.51
9746;BME280;4912;50.836;12.958;2023-05-02T05:39:10;97929.38;;;12.91;76.92
9746;BME280;4912;50.836;12.958;2023-05-02T05:41:42;97940.69;;;12.87;76.84
9746;BME280;4912;50.836;12.958;2023-05-02T05:44:13;97937.06;;;12.96;76.21
9746;BME280;4912;50.836;12.958;2023-05-02T05:46:44;97943.56;;;12.93;75.79
9746;BME280;4912;50.836;12.958;2023-05-02T05:49:15;97943.09;;;12.94;75.97
9746;BME280;4912;50.836;12.958;2023-05-02T05:51:49;97953.41;;;13.08;75.47
9746;BME280;4912;50.836;12.958;2023-05-02T05:54:19;97953.72;;;13.25;74.91
9746;BME280;4912;50.836;12.958;2023-05-02T05:56:50;97965.38;;;13.29;74.64
9746;BME280;4912;50.836;12.958;2023-05-02T05:59:21;97965.16;;;13.33;74.05
9746;BME280;4912;50.836;12.958;2023-05-02T06:01:52;97975.13;;;13.39;73.74
9746;BME280;4912;50.836;12.958;2023-05-02T06:04:24;97968.63;;;13.42;73.25
9746;BME280;4912;50.836;12.958;2023-05-02T06:06:57;97980.38;;;13.37;73.09
9746;BME280;4912;50.836;12.958;2023-05-02T06:09:28;97977.06;;;13.33;73.66
9746;BME280;4912;50.836;12.958;2023-05-02T06:12:00;97991.69;;;13.48;73.22
9746;BME280;4912;50.836;12.958;2023-05-02T06:14:34;97992.72;;;13.66;72.65
9746;BME280;4912;50.836;12.958;2023-05-02T06:17:05;97992.44;;;13.84;71.79
9746;BME280;4912;50.836;12.958;2023-05-02T06:19:35;97993.91;;;14.00;71.38
9746;BME280;4912;50.836;12.958;2023-05-02T06:22:10;98008.19;;;14.07;71.09
9746;BME280;4912;50.836;12.958;2023-05-02T06:24:41;98007.19;;;14.10;69.72
9746;BME280;4912;50.836;12.958;2023-05-02T06:27:12;98008.09;;;14.22;69.30
9746;BME280;4912;50.836;12.958;2023-05-02T06:29:42;98011.16;;;14.44;68.38
9746;BME280;4912;50.836;12.958;2023-05-02T06:32:13;98017.91;;;14.58;68.52
9746;BME280;4912;50.836;12.958;2023-05-02T06:34:44;98019.72;;;14.87;67.56
9746;BME280;4912;50.836;12.958;2023-05-02T06:37:17;98022.66;;;15.03;66.26
9746;BME280;4912;50.836;12.958;2023-05-02T06:39:48;98027.03;;;15.10;65.74
9746;BME280;4912;50.836;12.958;2023-05-02T06:42:18;98029.00;;;15.30;66.83
9746;BME280;4912;50.836;12.958;2023-05-02T06:44:50;98028.56;;;15.37;65.98
9746;BME280;4912;50.836;12.958;2023-05-02T06:47:20;98032.34;;;15.39;64.34
9746;BME280;4912;50.836;12.958;2023-05-02T06:49:51;98040.50;;;15.43;64.26
9746;BME280;4912;50.836;12.958;2023-05-02T06:52:24;98044.56;;;15.42;63.69
9746;BME280;4912;50.836;12.958;2023-05-02T06:54:54;98034.28;;;15.53;64.06
9746;BME280;4912;50.836;12.958;2023-05-02T06:57:25;98050.81;;;15.63;63.56
9746;BME280;4912;50.836;12.958;2023-05-02T06:59:56;98060.44;;;15.62;63.32
9746;BME280;4912;50.836;12.958;2023-05-02T07:02:26;98057.50;;;15.45;62.35
9746;BME280;4912;50.836;12.958;2023-05-02T07:04:57;98065.03;;;15.39;63.08
9746;BME280;4912;50.836;12.958;2023-05-02T07:07:30;98065.72;;;15.28;62.46
9746;BME280;4912;50.836;12.958;2023-05-02T07:10:01;98081.19;;;15.03;61.93
9746;BME280;4912;50.836;12.958;2023-05-02T07:12:32;98083.81;;;14.87;63.13
9746;BME280;4912;50.836;12.958;2023-05-02T07:15:04;98084.84;;;14.89;63.84
9746;BME280;4912;50.836;12.958;2023-05-02T07:17:36;98091.69;;;14.88;64.52
9746;BME280;4912;50.836;12.958;2023-05-02T07:20:09;98096.00;;;14.89;64.67
9746;BME280;4912;50.836;12.958;2023-05-02T07:22:44;98095.59;;;14.76;65.13
9746;BME280;4912;50.836;12.958;2023-05-02T07:25:14;98104.00;;;14.82;65.50
9746;BME280;4912;50.836;12.958;2023-05-02T07:27:45;98103.78;;;14.85;66.15
9746;BME280;4912;50.836;12.958;2023-05-02T07:30:16;98100.03;;;14.88;66.82
9746;BME280;4912;50.836;12.958;2023-05-02T07:32:46;98105.91;;;14.90;66.95
9746;BME280;4912;50.836;12.958;2023-05-02T07:35:17;98096.72;;;14.84;67.46
9746;BME280;4912;50.836;12.958;2023-05-02T07:37:50;98110.06;;;14.80;67.88
9746;BME280;4912;50.836;12.958;2023-05-02T07:40:20;98115.56;;;14.74;67.96
9746;BME280;4912;50.836;12.958;2023-05-02T07:42:51;98115.44;;;14.63;68.39
9746;BME280;4912;50.836;12.958;2023-05-02T07:45:22;98123.56;;;14.67;68.25
9746;BME280;4912;50.836;12.958;2023-05-02T07:47:52;98127.41;;;14.69;68.78
9746;BME280;4912;50.836;12.958;2023-05-02T07:50:23;98134.03;;;14.72;70.45
9746;BME280;4912;50.836;12.958;2023-05-02T07:52:56;98130.97;;;14.70;69.67
9746;BME280;4912;50.836;12.958;2023-05-02T07:55:27;98132.16;;;14.84;70.13
9746;BME280;4912;50.836;12.958;2023-05-02T07:57:59;98134.56;;;14.96;69.76
9746;BME280;4912;50.836;12.958;2023-05-02T08:00:30;98143.28;;;15.04;70.73
9746;BME280;4912;50.836;12.958;2023-05-02T08:03:00;98143.72;;;15.23;70.46
9746;BME280;4912;50.836;12.958;2023-05-02T08:05:31;98145.66;;;15.37;69.64
9746;BME280;4912;50.836;12.958;2023-05-02T08:08:04;98150.28;;;15.45;68.90
9746;BME280;4912;50.836;12.958;2023-05-02T08:10:35;98153.00;;;15.60;68.05
9746;BME280;4912;50.836;12.958;2023-05-02T08:13:05;98161.63;;;15.62;68.11
9746;BME280;4912;50.836;12.958;2023-05-02T08:15:36;98160.75;;;15.76;68.17
9746;BME280;4912;50.836;12.958;2023-05-02T08:18:06;98162.91;;;15.92;68.53
9746;BME280;4912;50.836;12.958;2023-05-02T08:20:37;98164.00;;;16.01;65.87
9746;BME280;4912;50.836;12.958;2023-05-02T08:23:10;98176.00;;;16.12;65.31
9746;BME280;4912;50.836;12.958;2023-05-02T08:25:40;98174.97;;;16.10;65.39
9746;BME280;4912;50.836;12.958;2023-05-02T08:28:11;98178.25;;;16.08;66.53
9746;BME280;4912;50.836;12.958;2023-05-02T08:30:42;98189.06;;;15.95;66.52
9746;BME280;4912;50.836;12.958;2023-05-02T08:33:12;98178.09;;;15.60;66.37
9746;BME280;4912;50.836;12.958;2023-05-02T08:35:43;98185.22;;;15.41;67.69
9746;BME280;4912;50.836;12.958;2023-05-02T08:38:16;98196.75;;;15.28;68.73
9746;BME280;4912;50.836;12.958;2023-05-02T08:40:47;98190.59;;;15.44;69.77
9746;BME280;4912;50.836;12.958;2023-05-02T08:43:17;98195.50;;;16.07;67.81
9746;BME280;4912;50.836;12.958;2023-05-02T08:45:48;98199.31;;;16.09;67.33
9746;BME280;4912;50.836;12.958;2023-05-02T08:48:23;98203.22;;;15.91;68.00
9746;BME280;4912;50.836;12.958;2023-05-02T08:50:54;98209.97;;;15.79;67.69
9746;BME280;4912;50.836;12.958;2023-05-02T08:53:28;98211.69;;;15.71;65.50
9746;BME280;4912;50.836;12.958;2023-05-02T08:56:01;98211.13;;;15.67;65.46
9746;BME280;4912;50.836;12.958;2023-05-02T08:58:32;98214.84;;;15.84;65.43
9746;BME280;4912;50.836;12.958;2023-05-02T09:01:09;98216.63;;;16.13;64.36
9746;BME280;4912;50.836;12.958;2023-05-02T09:03:44;98211.25;;;16.41;63.69
9746;BME280;4912;50.836;12.958;2023-05-02T09:06:16;98213.94;;;17.20;61.20
9746;BME280;4912;50.836;12.958;2023-05-02T09:08:50;98228.91;;;18.05;57.54
9746;BME280;4912;50.836;12.958;2023-05-02T09:11:22;98217.72;;;18.27;56.86
9746;BME280;4912;50.836;12.958;2023-05-02T09:13:53;98219.75;;;18.26;55.58
9746;BME280;4912;50.836;12.958;2023-05-02T09:16:25;98222.06;;;18.17;54.42
9746;BME280;4912;50.836;12.958;2023-05-02T09:18:57;98224.59;;;18.15;55.52
9746;BME280;4912;50.836;12.958;2023-05-02T09:21:35;98220.25;;;17.97;55.94
9746;BME280;4912;50.836;12.958;2023-05-02T09:24:20;98227.88;;;17.80;57.15
9746;BME280;4912;50.836;12.958;2023-05-02T09:26:56;98233.44;;;17.69;58.11
9746;BME280;4912;50.836;12.958;2023-05-02T09:29:30;98227.53;;;17.50;57.64
9746;BME280;4912;50.836;12.958;2023-05-02T09:32:02;98235.19;;;17.49;58.37
9746;BME280;4912;50.836;12.958;2023-05-02T09:34:34;98234.34;;;17.32;59.39
9746;BME280;4912;50.836;12.958;2023-05-02T09:37:05;98234.97;;;16.99;59.57
9746;BME280;4912;50.836;12.958;2023-05-02T09:40:04;98235.34;;;16.75;60.05
9746;BME280;4912;50.836;12.958;2023-05-02T09:42:35;98246.72;;;16.61;60.76
9746;BME280;4912;50.836;12.958;2023-05-02T09:45:18;98245.59;;;16.53;61.97
9746;BME280;4912;50.836;12.958;2023-05-02T09:47:51;98255.88;;;16.35;61.91
9746;BME280;4912;50.836;12.958;2023-05-02T09:50:31;98255.47;;;16.17;63.17
9746;BME280;4912;50.836;12.958;2023-05-02T09:53:03;98262.50;;;16.07;63.60
9746;BME280;4912;50.836;12.958;2023-05-02T09:55:38;98258.03;;;15.89;63.55
9746;BME280;4912;50.836;12.958;2023-05-02T09:58:19;98261.31;;;15.87;63.54
9746;BME280;4912;50.836;12.958;2023-05-02T10:00:51;98259.66;;;15.75;63.50
9746;BME280;4912;50.836;12.958;2023-05-02T10:03:23;98262.97;;;15.79;64.45
9746;BME280;4912;50.836;12.958;2023-05-02T10:05:55;98264.44;;;15.95;64.58
9746;BME280;4912;50.836;12.958;2023-05-02T10:08:27;98273.28;;;16.19;65.07
9746;BME280;4912;50.836;12.958;2023-05-02T10:11:04;98264.75;;;16.34;63.70
9746;BME280;4912;50.836;12.958;2023-05-02T10:13:38;98263.09;;;16.48;62.87
9746;BME280;4912;50.836;12.958;2023-05-02T10:16:11;98268.19;;;16.49;61.46
9746;BME280;4912;50.836;12.958;2023-05-02T10:18:47;98272.91;;;16.69;60.61
9746;BME280;4912;50.836;12.958;2023-05-02T10:21:25;98273.53;;;16.84;59.52
9746;BME280;4912;50.836;12.958;2023-05-02T10:23:56;98275.88;;;16.97;59.74
9746;BME280;4912;50.836;12.958;2023-05-02T10:26:29;98266.56;;;17.16;59.06
9746;BME280;4912;50.836;12.958;2023-05-02T10:29:01;98276.97;;;17.70;58.75
9746;BME280;4912;50.836;12.958;2023-05-02T10:31:32;98278.81;;;18.00;55.62
9746;BME280;4912;50.836;12.958;2023-05-02T10:34:06;98276.81;;;18.29;56.06
9746;BME280;4912;50.836;12.958;2023-05-02T10:36:39;98275.00;;;18.20;55.03
9746;BME280;4912;50.836;12.958;2023-05-02T10:39:10;98279.31;;;18.05;56.15
9746;BME280;4912;50.836;12.958;2023-05-02T10:41:45;98284.09;;;17.71;55.92
9746;BME280;4912;50.836;12.958;2023-05-02T10:44:15;98275.19;;;17.67;56.81
9746;BME280;4912;50.836;12.958;2023-05-02T10:46:46;98277.47;;;17.74;55.98
9746;BME280;4912;50.836;12.958;2023-05-02T10:49:19;98281.59;;;17.78;55.71
9746;BME280;4912;50.836;12.958;2023-05-02T10:51:53;98276.47;;;17.71;55.73
9746;BME280;4912;50.836;12.958;2023-05-02T10:54:24;98270.69;;;18.08;55.28
9746;BME280;4912;50.836;12.958;2023-05-02T10:57:04;98274.97;;;18.98;52.76
9746;BME280;4912;50.836;12.958;2023-05-02T10:59:38;98268.06;;;19.05;51.89
9746;BME280;4912;50.836;12.958;2023-05-02T11:05:18;98269.53;;;19.28;51.02
9746;BME280;4912;50.836;12.958;2023-05-02T11:07:48;98261.31;;;19.47;50.91
9746;BME280;4912;50.836;12.958;2023-05-02T11:10:25;98270.94;;;20.39;49.51
9746;BME280;4912;50.836;12.958;2023-05-02T11:13:00;98265.41;;;20.28;47.04
9746;BME280;4912;50.836;12.958;2023-05-02T11:15:54;98262.22;;;20.13;47.27
9746;BME280;4912;50.836;12.958;2023-05-02T11:18:57;98270.06;;;20.20;46.39
9746;BME280;4912;50.836;12.958;2023-05-02T11:21:29;98259.16;;;20.46;46.05
9746;BME280;4912;50.836;12.958;2023-05-02T11:27:36;98259.66;;;20.99;43.91
9746;BME280;4912;50.836;12.958;2023-05-02T11:30:12;98254.44;;;21.08;44.28
9746;BME280;4912;50.836;12.958;2023-05-02T11:33:11;98255.31;;;21.22;43.62
9746;BME280;4912;50.836;12.958;2023-05-02T11:35:47;98260.88;;;21.03;43.67
9746;BME280;4912;50.836;12.958;2023-05-02T11:38:19;98258.94;;;20.93;44.96
9746;BME280;4912;50.836;12.958;2023-05-02T11:40:55;98262.66;;;20.82;45.35
9746;BME280;4912;50.836;12.958;2023-05-02T11:43:27;98266.50;;;21.03;46.30
9746;BME280;4912;50.836;12.958;2023-05-02T11:46:01;98264.81;;;20.95;46.04
9746;BME280;4912;50.836;12.958;2023-05-02T11:48:32;98259.69;;;20.69;45.09
9746;BME280;4912;50.836;12.958;2023-05-02T11:51:02;98265.22;;;20.80;45.72
9746;BME280;4912;50.836;12.958;2023-05-02T11:53:39;98265.88;;;20.67;46.16
9746;BME280;4912;50.836;12.958;2023-05-02T11:56:10;98272.16;;;20.49;46.36
9746;BME280;4912;50.836;12.958;2023-05-02T11:58:40;98263.00;;;21.64;45.32
9746;BME280;4912;50.836;12.958;2023-05-02T12:01:15;98257.00;;;23.14;41.07
9746;BME280;4912;50.836;12.958;2023-05-02T12:03:46;98252.31;;;24.45;37.57
9746;BME280;4912;50.836;12.958;2023-05-02T12:06:18;98258.31;;;23.87;39.14
9746;BME280;4912;50.836;12.958;2023-05-02T12:08:49;98259.81;;;23.01;40.38
9746;BME280;4912;50.836;12.958;2023-05-02T12:11:22;98263.19;;;22.55;41.02
9746;BME280;4912;50.836;12.958;2023-05-02T12:13:53;98263.50;;;22.19;41.90
9746;BME280;4912;50.836;12.958;2023-05-02T12:16:27;98264.78;;;22.82;39.58
9746;BME280;4912;50.836;12.958;2023-05-02T12:18:58;98265.66;;;23.03;39.90
9746;BME280;4912;50.836;12.958;2023-05-02T12:21:29;98252.66;;;23.26;39.94
9746;BME280;4912;50.836;12.958;2023-05-02T12:24:00;98268.81;;;23.26;37.94
9746;BME280;4912;50.836;12.958;2023-05-02T12:26:31;98254.25;;;22.37;40.44
9746;BME280;4912;50.836;12.958;2023-05-02T12:29:03;98267.09;;;21.82;41.58
9746;BME280;4912;50.836;12.958;2023-05-02T12:31:37;98268.00;;;21.53;42.99
9746;BME280;4912;50.836;12.958;2023-05-02T12:34:08;98265.50;;;21.49;43.05
9746;BME280;4912;50.836;12.958;2023-05-02T12:36:43;98264.03;;;21.43;42.51
9746;BME280;4912;50.836;12.958;2023-05-02T12:39:14;98265.03;;;23.23;39.67
9746;BME280;4912;50.836;12.958;2023-05-02T12:41:44;98273.16;;;24.97;35.03
9746;BME280;4912;50.836;12.958;2023-05-02T12:44:18;98272.09;;;25.07;34.55
9746;BME280;4912;50.836;12.958;2023-05-02T12:47:10;98267.56;;;25.76;32.85
9746;BME280;4912;50.836;12.958;2023-05-02T12:49:48;98267.22;;;25.44;34.76
9746;BME280;4912;50.836;12.958;2023-05-02T12:52:20;98253.78;;;24.59;35.24
9746;BME280;4912;50.836;12.958;2023-05-02T12:55:19;98260.97;;;25.74;34.60
9746;BME280;4912;50.836;12.958;2023-05-02T12:57:59;98263.66;;;25.15;33.29
9746;BME280;4912;50.836;12.958;2023-05-02T13:00:31;98256.78;;;25.03;33.82
9746;BME280;4912;50.836;12.958;2023-05-02T13:03:05;98248.09;;;26.84;31.03
9746;BME280;4912;50.836;12.958;2023-05-02T13:05:36;98252.19;;;28.57;29.40
9746;BME280;4912;50.836;12.958;2023-05-02T13:08:07;98245.13;;;27.60;30.24
9746;BME280;4912;50.836;12.958;2023-05-02T13:10:37;98253.03;;;26.84;31.02
9746;BME280;4912;50.836;12.958;2023-05-02T13:13:08;98266.22;;;25.62;31.50
9746;BME280;4912;50.836;12.958;2023-05-02T13:15:38;98261.78;;;24.47;34.32
9746;BME280;4912;50.836;12.958;2023-05-02T13:18:11;98270.34;;;24.00;35.09
9746;BME280;4912;50.836;12.958;2023-05-02T13:20:45;98267.63;;;23.48;37.03
9746;BME280;4912;50.836;12.958;2023-05-02T13:23:16;98266.31;;;22.83;38.58
9746;BME280;4912;50.836;12.958;2023-05-02T13:25:46;98263.72;;;22.21;39.85
9746;BME280;4912;50.836;12.958;2023-05-02T13:28:16;98278.22;;;21.75;40.91
9746;BME280;4912;50.836;12.958;2023-05-02T13:30:47;98276.16;;;21.38;42.21
9746;BME280;4912;50.836;12.958;2023-05-02T13:33:20;98277.94;;;21.11;42.99
9746;BME280;4912;50.836;12.958;2023-05-02T13:35:50;98275.56;;;22.01;41.04
9746;BME280;4912;50.836;12.958;2023-05-02T13:38:21;98272.88;;;21.52;41.15
9746;BME280;4912;50.836;12.958;2023-05-02T13:40:51;98278.53;;;21.04;42.14
9746;BME280;4912;50.836;12.958;2023-05-02T13:43:22;98282.53;;;21.14;42.97
9746;BME280;4912;50.836;12.958;2023-05-02T13:45:53;98271.75;;;23.07;39.26
9746;BME280;4912;50.836;12.958;2023-05-02T13:48:26;98270.31;;;25.25;35.39
9746;BME280;4912;50.836;12.958;2023-05-02T13:50:57;98263.44;;;26.74;33.28